sensor_id;sensor_type;location;lat;lon;timestamp;temperature;humidity
76967;DHT22;65904;52.278;20.972;2023-04-12T00:00:57;8.80;99.90
76967;DHT22;65904;52.278;20.972;2023-04-12T00:03:43;8.80;99.90
76967;DHT22;65904;52.278;20.972;2023-04-12T00:06:35;8.80;99.90
76967;DHT22;65904;52.278;20.972;2023-04-12T00:09:21;8.70;99.90
76967;DHT22;65904;52.278;20.972;2023-04-12T00:12:08;8.70;99.90
76967;DHT22;65904;52.278;20.972;2023-04-12T00:14:54;8.60;99.90
76967;DHT22;65904;52.278;20.972;2023-04-12T00:17:41;8.60;99.90
76967;DHT22;65904;52.278;20.972;2023-04-12T00:20:27;8.50;99.90
76967;DHT22;65904;52.278;20.972;2023-04-12T00:23:14;8.50;99.90
76967;DHT22;65904;52.278;20.972;2023-04-12T00:26:00;8.50;99.90
76967;DHT22;65904;52.278;20.972;2023-04-12T00:28:47;8.50;99.90
76967;DHT22;65904;52.278;20.972;2023-04-12T00:31:33;8.50;99.90
76967;DHT22;65904;52.278;20.972;2023-04-12T00:34:21;8.60;99.90
76967;DHT22;65904;52.278;20.972;2023-04-12T00:37:06;8.60;99.90
76967;DHT22;65904;52.278;20.972;2023-04-12T00:39:54;8.60;99.90
76967;DHT22;65904;52.278;20.972;2023-04-12T00:42:40;8.60;99.90
76967;DHT22;65904;52.278;20.972;2023-04-12T00:45:27;8.60;99.90
76967;DHT22;65904;52.278;20.972;2023-04-12T00:48:13;8.60;99.90
76967;DHT22;65904;52.278;20.972;2023-04-12T00:51:00;8.50;99.90
76967;DHT22;65904;52.278;20.972;2023-04-12T00:53:48;8.40;99.90
76967;DHT22;65904;52.278;20.972;2023-04-12T00:56:36;8.40;99.90
76967;DHT22;65904;52.278;20.972;2023-04-12T00:59:24;8.30;99.90
76967;DHT22;65904;52.278;20.972;2023-04-12T01:02:11;8.30;99.90
76967;DHT22;65904;52.278;20.972;2023-04-12T01:04:57;8.30;99.90
76967;DHT22;65904;52.278;20.972;2023-04-12T01:07:50;8.30;99.90
76967;DHT22;65904;52.278;20.972;2023-04-12T01:10:43;8.40;99.90
76967;DHT22;65904;52.278;20.972;2023-04-12T01:13:38;8.40;99.90
76967;DHT22;65904;52.278;20.972;2023-04-12T01:16:29;8.40;99.90
76967;DHT22;65904;52.278;20.972;2023-04-12T01:22:51;8.40;99.90
76967;DHT22;65904;52.278;20.972;2023-04-12T01:25:49;8.40;99.90
76967;DHT22;65904;52.278;20.972;2023-04-12T01:28:41;8.40;99.90
76967;DHT22;65904;52.278;20.972;2023-04-12T01:31:30;8.50;99.90
76967;DHT22;65904;52.278;20.972;2023-04-12T01:34:17;8.50;99.90
76967;DHT22;65904;52.278;20.972;2023-04-12T01:37:05;8.50;99.90
76967;DHT22;65904;52.278;20.972;2023-04-12T01:39:52;8.50;99.90
76967;DHT22;65904;52.278;20.972;2023-04-12T01:42:38;8.50;99.90
76967;DHT22;65904;52.278;20.972;2023-04-12T01:45:26;8.50;99.90
76967;DHT22;65904;52.278;20.972;2023-04-12T01:48:12;8.50;99.90
76967;DHT22;65904;52.278;20.972;2023-04-12T01:51:04;8.50;99.90
76967;DHT22;65904;52.278;20.972;2023-04-12T01:53:56;8.50;99.90
76967;DHT22;65904;52.278;20.972;2023-04-12T01:56:46;8.50;99.90
76967;DHT22;65904;52.278;20.972;2023-04-12T01:59:39;8.50;99.90
76967;DHT22;65904;52.278;20.972;2023-04-12T02:02:27;8.50;99.90
76967;DHT22;65904;52.278;20.972;2023-04-12T02:05:14;8.50;99.90
76967;DHT22;65904;52.278;20.972;2023-04-12T02:08:01;8.50;99.90
76967;DHT22;65904;52.278;20.972;2023-04-12T02:10:48;8.50;99.90
76967;DHT22;65904;52.278;20.972;2023-04-12T02:13:35;8.50;99.90
76967;DHT22;65904;52.278;20.972;2023-04-12T02:16:21;8.50;99.90
76967;DHT22;65904;52.278;20.972;2023-04-12T02:19:09;8.50;99.90
76967;DHT22;65904;52.278;20.972;2023-04-12T02:21:55;8.40;99.90
76967;DHT22;65904;52.278;20.972;2023-04-12T02:24:41;8.40;99.90
76967;DHT22;65904;52.278;20.972;2023-04-12T02:27:27;8.40;99.90
76967;DHT22;65904;52.278;20.972;2023-04-12T02:30:14;8.40;99.90
76967;DHT22;65904;52.278;20.972;2023-04-12T02:33:04;8.40;99.90
76967;DHT22;65904;52.278;20.972;2023-04-12T02:35:55;8.40;99.90
76967;DHT22;65904;52.278;20.972;2023-04-12T02:38:42;8.40;99.90
76967;DHT22;65904;52.278;20.972;2023-04-12T02:41:29;8.50;99.90
76967;DHT22;65904;52.278;20.972;2023-04-12T02:44:15;8.50;99.90
76967;DHT22;65904;52.278;20.972;2023-04-12T02:47:07;8.50;99.90
76967;DHT22;65904;52.278;20.972;2023-04-12T02:49:54;8.60;99.90
76967;DHT22;65904;52.278;20.972;2023-04-12T02:52:42;8.50;99.90
76967;DHT22;65904;52.278;20.972;2023-04-12T02:55:29;8.60;99.90
76967;DHT22;65904;52.278;20.972;2023-04-12T02:58:17;8.50;99.90
76967;DHT22;65904;52.278;20.972;2023-04-12T03:01:06;8.60;99.90
76967;DHT22;65904;52.278;20.972;2023-04-12T03:04:07;8.60;99.90
76967;DHT22;65904;52.278;20.972;2023-04-12T03:07:00;8.60;99.90
76967;DHT22;65904;52.278;20.972;2023-04-12T03:10:08;8.60;99.90
76967;DHT22;65904;52.278;20.972;2023-04-12T03:13:01;8.60;99.90
76967;DHT22;65904;52.278;20.972;2023-04-12T03:15:58;8.60;99.90
76967;DHT22;65904;52.278;20.972;2023-04-12T03:18:52;8.60;99.90
76967;DHT22;65904;52.278;20.972;2023-04-12T03:21:41;8.60;99.90
76967;DHT22;65904;52.278;20.972;2023-04-12T03:24:27;8.70;99.90
76967;DHT22;65904;52.278;20.972;2023-04-12T03:27:18;8.60;99.90
76967;DHT22;65904;52.278;20.972;2023-04-12T03:30:07;8.60;99.90
76967;DHT22;65904;52.278;20.972;2023-04-12T03:32:56;8.60;99.90
76967;DHT22;65904;52.278;20.972;2023-04-12T03:35:44;8.60;99.90
76967;DHT22;65904;52.278;20.972;2023-04-12T03:38:32;8.60;99.90
76967;DHT22;65904;52.278;20.972;2023-04-12T03:41:20;8.60;99.90
76967;DHT22;65904;52.278;20.972;2023-04-12T03:44:08;8.60;99.90
76967;DHT22;65904;52.278;20.972;2023-04-12T03:46:55;8.60;99.90
76967;DHT22;65904;52.278;20.972;2023-04-12T03:49:42;8.60;99.90
76967;DHT22;65904;52.278;20.972;2023-04-12T03:52:31;8.60;99.90
76967;DHT22;65904;52.278;20.972;2023-04-12T03:55:18;8.60;99.90
76967;DHT22;65904;52.278;20.972;2023-04-12T03:58:08;8.60;99.90
76967;DHT22;65904;52.278;20.972;2023-04-12T04:01:02;8.70;99.90
76967;DHT22;65904;52.278;20.972;2023-04-12T04:03:50;8.70;99.90
76967;DHT22;65904;52.278;20.972;2023-04-12T04:06:40;8.70;99.90
76967;DHT22;65904;52.278;20.972;2023-04-12T04:09:26;8.70;99.90
76967;DHT22;65904;52.278;20.972;2023-04-12T04:12:13;8.70;99.90
76967;DHT22;65904;52.278;20.972;2023-04-12T04:15:04;8.80;99.90
76967;DHT22;65904;52.278;20.972;2023-04-12T04:17:53;8.80;99.90
76967;DHT22;65904;52.278;20.972;2023-04-12T04:20:39;8.80;99.90
76967;DHT22;65904;52.278;20.972;2023-04-12T04:23:27;8.70;99.90
76967;DHT22;65904;52.278;20.972;2023-04-12T04:26:16;8.70;99.90
76967;DHT22;65904;52.278;20.972;2023-04-12T04:29:10;8.70;99.90
76967;DHT22;65904;52.278;20.972;2023-04-12T04:31:57;8.70;99.90
76967;DHT22;65904;52.278;20.972;2023-04-12T04:34:46;8.70;99.90
76967;DHT22;65904;52.278;20.972;2023-04-12T04:37:35;8.70;99.90
76967;DHT22;65904;52.278;20.972;2023-04-12T04:40:22;8.80;99.90
76967;DHT22;65904;52.278;20.972;2023-04-12T04:43:09;8.80;99.90
76967;DHT22;65904;52.278;20.972;2023-04-12T04:45:59;8.80;99.90
76967;DHT22;65904;52.278;20.972;2023-04-12T04:48:46;8.80;99.90
76967;DHT22;65904;52.278;20.972;2023-04-12T04:51:33;8.80;99.90
76967;DHT22;65904;52.278;20.972;2023-04-12T04:54:22;8.80;99.90
76967;DHT22;65904;52.278;20.972;2023-04-12T04:57:09;8.80;99.90
76967;DHT22;65904;52.278;20.972;2023-04-12T04:59:57;8.90;99.90
76967;DHT22;65904;52.278;20.972;2023-04-12T05:02:43;8.90;99.90
76967;DHT22;65904;52.278;20.972;2023-04-12T05:05:33;8.90;99.90
76967;DHT22;65904;52.278;20.972;2023-04-12T05:08:26;8.90;99.90
76967;DHT22;65904;52.278;20.972;2023-04-12T05:11:13;8.90;99.90
76967;DHT22;65904;52.278;20.972;2023-04-12T05:13:59;8.90;99.90
76967;DHT22;65904;52.278;20.972;2023-04-12T05:16:45;8.90;99.90
76967;DHT22;65904;52.278;20.972;2023-04-12T05:19:31;8.90;99.90
76967;DHT22;65904;52.278;20.972;2023-04-12T05:22:17;8.90;99.90
76967;DHT22;65904;52.278;20.972;2023-04-12T05:25:08;8.90;99.90
76967;DHT22;65904;52.278;20.972;2023-04-12T05:28:00;9.00;99.90
76967;DHT22;65904;52.278;20.972;2023-04-12T05:30:46;9.00;99.90
76967;DHT22;65904;52.278;20.972;2023-04-12T05:33:38;9.00;99.90
76967;DHT22;65904;52.278;20.972;2023-04-12T05:36:24;9.00;99.90
76967;DHT22;65904;52.278;20.972;2023-04-12T05:39:10;9.10;99.90
76967;DHT22;65904;52.278;20.972;2023-04-12T05:41:57;9.10;99.90
76967;DHT22;65904;52.278;20.972;2023-04-12T05:44:45;9.10;99.90
76967;DHT22;65904;52.278;20.972;2023-04-12T05:47:32;9.20;99.90
76967;DHT22;65904;52.278;20.972;2023-04-12T05:50:19;9.20;99.90
76967;DHT22;65904;52.278;20.972;2023-04-12T05:53:05;9.30;99.90
76967;DHT22;65904;52.278;20.972;2023-04-12T05:55:52;9.30;99.90
76967;DHT22;65904;52.278;20.972;2023-04-12T05:58:40;9.40;99.90
76967;DHT22;65904;52.278;20.972;2023-04-12T06:01:27;9.40;99.90
76967;DHT22;65904;52.278;20.972;2023-04-12T06:04:15;9.50;99.90
76967;DHT22;65904;52.278;20.972;2023-04-12T06:07:02;9.50;99.90
76967;DHT22;65904;52.278;20.972;2023-04-12T06:09:49;9.50;99.90
76967;DHT22;65904;52.278;20.972;2023-04-12T06:12:36;9.50;99.90
76967;DHT22;65904;52.278;20.972;2023-04-12T06:15:23;9.50;99.90
76967;DHT22;65904;52.278;20.972;2023-04-12T06:18:13;9.50;99.90
76967;DHT22;65904;52.278;20.972;2023-04-12T06:20:59;9.50;99.90
76967;DHT22;65904;52.278;20.972;2023-04-12T06:23:46;9.60;99.90
76967;DHT22;65904;52.278;20.972;2023-04-12T06:26:32;9.60;99.90
76967;DHT22;65904;52.278;20.972;2023-04-12T06:29:19;9.70;99.90
76967;DHT22;65904;52.278;20.972;2023-04-12T06:32:08;9.60;99.90
76967;DHT22;65904;52.278;20.972;2023-04-12T06:34:55;9.70;99.90
76967;DHT22;65904;52.278;20.972;2023-04-12T06:37:41;9.70;99.90
76967;DHT22;65904;52.278;20.972;2023-04-12T06:40:27;9.70;99.90
76967;DHT22;65904;52.278;20.972;2023-04-12T06:43:15;9.60;99.90
76967;DHT22;65904;52.278;20.972;2023-04-12T06:46:03;9.70;99.90
76967;DHT22;65904;52.278;20.972;2023-04-12T06:48:51;9.70;99.90
76967;DHT22;65904;52.278;20.972;2023-04-12T06:51:37;9.80;99.90
76967;DHT22;65904;52.278;20.972;2023-04-12T06:54:23;9.80;99.90
76967;DHT22;65904;52.278;20.972;2023-04-12T06:57:09;9.80;99.90
76967;DHT22;65904;52.278;20.972;2023-04-12T06:59:56;9.70;99.90
76967;DHT22;65904;52.278;20.972;2023-04-12T07:02:42;9.70;99.90
76967;DHT22;65904;52.278;20.972;2023-04-12T07:05:29;9.70;99.90
76967;DHT22;65904;52.278;20.972;2023-04-12T07:08:16;9.80;99.90
76967;DHT22;65904;52.278;20.972;2023-04-12T07:11:02;9.90;99.90
76967;DHT22;65904;52.278;20.972;2023-04-12T07:13:49;9.90;99.90
76967;DHT22;65904;52.278;20.972;2023-04-12T07:16:35;9.90;99.90
76967;DHT22;65904;52.278;20.972;2023-04-12T07:19:21;10.00;99.90
76967;DHT22;65904;52.278;20.972;2023-04-12T07:22:09;10.00;99.90
76967;DHT22;65904;52.278;20.972;2023-04-12T07:24:55;9.90;99.90
76967;DHT22;65904;52.278;20.972;2023-04-12T07:27:42;10.00;99.90
76967;DHT22;65904;52.278;20.972;2023-04-12T07:30:28;10.00;99.90
76967;DHT22;65904;52.278;20.972;2023-04-12T07:33:14;10.10;99.90
76967;DHT22;65904;52.278;20.972;2023-04-12T07:36:00;10.20;99.90
76967;DHT22;65904;52.278;20.972;2023-04-12T07:38:48;10.20;99.90
76967;DHT22;65904;52.278;20.972;2023-04-12T07:41:38;10.30;99.90
76967;DHT22;65904;52.278;20.972;2023-04-12T07:44:25;10.30;99.90
76967;DHT22;65904;52.278;20.972;2023-04-12T07:47:12;10.30;99.90
76967;DHT22;65904;52.278;20.972;2023-04-12T07:49:58;10.40;99.90
76967;DHT22;65904;52.278;20.972;2023-04-12T07:52:44;10.50;99.90
76967;DHT22;65904;52.278;20.972;2023-04-12T07:55:32;10.60;99.90
76967;DHT22;65904;52.278;20.972;2023-04-12T07:58:19;10.60;99.90
76967;DHT22;65904;52.278;20.972;2023-04-12T08:01:06;10.60;99.90
76967;DHT22;65904;52.278;20.972;2023-04-12T08:03:52;10.50;99.90
76967;DHT22;65904;52.278;20.972;2023-04-12T08:06:38;10.50;99.90
76967;DHT22;65904;52.278;20.972;2023-04-12T08:09:24;10.50;99.90
76967;DHT22;65904;52.278;20.972;2023-04-12T08:12:12;10.40;99.90
76967;DHT22;65904;52.278;20.972;2023-04-12T08:14:58;10.40;99.90
76967;DHT22;65904;52.278;20.972;2023-04-12T08:17:44;10.50;99.90
76967;DHT22;65904;52.278;20.972;2023-04-12T08:20:31;10.70;99.90
76967;DHT22;65904;52.278;20.972;2023-04-12T08:23:17;10.70;99.90
76967;DHT22;65904;52.278;20.972;2023-04-12T08:26:04;10.80;99.90
76967;DHT22;65904;52.278;20.972;2023-04-12T08:28:51;10.90;99.90
76967;DHT22;65904;52.278;20.972;2023-04-12T08:31:38;10.90;99.90
76967;DHT22;65904;52.278;20.972;2023-04-12T08:34:24;10.80;99.90
76967;DHT22;65904;52.278;20.972;2023-04-12T08:37:10;10.60;99.90
76967;DHT22;65904;52.278;20.972;2023-04-12T08:39:58;10.60;99.90
76967;DHT22;65904;52.278;20.972;2023-04-12T08:42:45;10.60;99.90
76967;DHT22;65904;52.278;20.972;2023-04-12T08:45:34;10.30;99.90
76967;DHT22;65904;52.278;20.972;2023-04-12T08:48:21;10.20;99.90
76967;DHT22;65904;52.278;20.972;2023-04-12T08:51:12;10.10;99.90
76967;DHT22;65904;52.278;20.972;2023-04-12T08:53:59;10.00;99.90
76967;DHT22;65904;52.278;20.972;2023-04-12T08:56:45;9.90;99.90
76967;DHT22;65904;52.278;20.972;2023-04-12T08:59:36;9.90;99.90
76967;DHT22;65904;52.278;20.972;2023-04-12T09:02:24;10.10;99.90
76967;DHT22;65904;52.278;20.972;2023-04-12T09:05:11;10.50;99.90
76967;DHT22;65904;52.278;20.972;2023-04-12T09:07:57;11.00;99.90
76967;DHT22;65904;52.278;20.972;2023-04-12T09:10:44;11.30;99.90
76967;DHT22;65904;52.278;20.972;2023-04-12T09:13:31;11.50;99.90
76967;DHT22;65904;52.278;20.972;2023-04-12T09:16:32;11.50;99.90
76967;DHT22;65904;52.278;20.972;2023-04-12T09:19:31;11.60;99.90
76967;DHT22;65904;52.278;20.972;2023-04-12T09:22:18;11.60;99.90
76967;DHT22;65904;52.278;20.972;2023-04-12T09:25:04;11.70;99.90
76967;DHT22;65904;52.278;20.972;2023-04-12T09:27:51;11.70;99.90
76967;DHT22;65904;52.278;20.972;2023-04-12T09:30:40;11.50;99.90
76967;DHT22;65904;52.278;20.972;2023-04-12T09:33:35;11.60;99.90
76967;DHT22;65904;52.278;20.972;2023-04-12T09:36:36;11.70;99.90
76967;DHT22;65904;52.278;20.972;2023-04-12T09:39:33;11.80;99.90
76967;DHT22;65904;52.278;20.972;2023-04-12T09:42:19;11.80;99.90
76967;DHT22;65904;52.278;20.972;2023-04-12T09:45:19;11.80;99.90
76967;DHT22;65904;52.278;20.972;2023-04-12T09:48:05;12.00;99.90
76967;DHT22;65904;52.278;20.972;2023-04-12T09:50:57;12.20;99.90
76967;DHT22;65904;52.278;20.972;2023-04-12T09:53:47;12.60;99.90
76967;DHT22;65904;52.278;20.972;2023-04-12T09:56:36;12.80;99.90
76967;DHT22;65904;52.278;20.972;2023-04-12T09:59:25;13.10;99.90
76967;DHT22;65904;52.278;20.972;2023-04-12T10:02:14;13.30;99.90
76967;DHT22;65904;52.278;20.972;2023-04-12T10:05:01;13.40;99.90
76967;DHT22;65904;52.278;20.972;2023-04-12T10:07:48;13.50;99.90
76967;DHT22;65904;52.278;20.972;2023-04-12T10:10:36;13.80;99.90
76967;DHT22;65904;52.278;20.972;2023-04-12T10:13:23;13.70;99.90
76967;DHT22;65904;52.278;20.972;2023-04-12T10:16:10;13.70;99.90
76967;DHT22;65904;52.278;20.972;2023-04-12T10:19:01;13.40;99.90
76967;DHT22;65904;52.278;20.972;2023-04-12T10:21:48;13.40;99.90
76967;DHT22;65904;52.278;20.972;2023-04-12T10:24:34;13.30;99.90
76967;DHT22;65904;52.278;20.972;2023-04-12T10:27:25;13.30;99.90
76967;DHT22;65904;52.278;20.972;2023-04-12T10:30:22;13.30;99.90
76967;DHT22;65904;52.278;20.972;2023-04-12T10:33:13;13.00;99.90
76967;DHT22;65904;52.278;20.972;2023-04-12T10:36:02;12.70;99.90
76967;DHT22;65904;52.278;20.972;2023-04-12T10:39:07;12.60;99.90
76967;DHT22;65904;52.278;20.972;2023-04-12T10:42:18;12.80;99.90
76967;DHT22;65904;52.278;20.972;2023-04-12T10:45:37;12.60;99.90
76967;DHT22;65904;52.278;20.972;2023-04-12T10:48:31;12.70;99.90
76967;DHT22;65904;52.278;20.972;2023-04-12T10:51:19;12.70;99.90
76967;DHT22;65904;52.278;20.972;2023-04-12T10:54:30;13.00;99.90
76967;DHT22;65904;52.278;20.972;2023-04-12T10:57:43;13.10;99.90
76967;DHT22;65904;52.278;20.972;2023-04-12T11:04:15;13.40;99.90
76967;DHT22;65904;52.278;20.972;2023-04-12T11:07:09;14.10;99.90
76967;DHT22;65904;52.278;20.972;2023-04-12T11:10:12;14.80;99.90
76967;DHT22;65904;52.278;20.972;2023-04-12T11:13:05;15.40;99.90
76967;DHT22;65904;52.278;20.972;2023-04-12T11:15:53;15.70;99.90
76967;DHT22;65904;52.278;20.972;2023-04-12T11:18:41;16.30;99.90
76967;DHT22;65904;52.278;20.972;2023-04-12T11:21:32;16.30;99.90
76967;DHT22;65904;52.278;20.972;2023-04-12T11:24:18;16.60;99.90
76967;DHT22;65904;52.278;20.972;2023-04-12T11:27:05;16.80;99.90
76967;DHT22;65904;52.278;20.972;2023-04-12T11:29:52;16.90;99.90
76967;DHT22;65904;52.278;20.972;2023-04-12T11:32:39;17.10;99.90
76967;DHT22;65904;52.278;20.972;2023-04-12T11:35:27;17.20;98.50
76967;DHT22;65904;52.278;20.972;2023-04-12T11:38:15;16.50;98.90
76967;DHT22;65904;52.278;20.972;2023-04-12T11:41:03;17.10;98.90
76967;DHT22;65904;52.278;20.972;2023-04-12T11:43:51;17.20;98.10
76967;DHT22;65904;52.278;20.972;2023-04-12T11:46:38;18.90;95.40
76967;DHT22;65904;52.278;20.972;2023-04-12T11:49:24;20.90;91.90
76967;DHT22;65904;52.278;20.972;2023-04-12T11:52:11;22.40;80.60
76967;DHT22;65904;52.278;20.972;2023-04-12T11:55:02;23.10;76.30
76967;DHT22;65904;52.278;20.972;2023-04-12T11:57:52;23.10;71.10
76967;DHT22;65904;52.278;20.972;2023-04-12T12:00:40;24.00;68.90
76967;DHT22;65904;52.278;20.972;2023-04-12T12:03:27;23.80;65.20
76967;DHT22;65904;52.278;20.972;2023-04-12T12:06:14;22.90;69.90
76967;DHT22;65904;52.278;20.972;2023-04-12T12:09:00;23.00;70.80
76967;DHT22;65904;52.278;20.972;2023-04-12T12:11:48;22.60;71.40
76967;DHT22;65904;52.278;20.972;2023-04-12T12:14:35;22.80;71.50
76967;DHT22;65904;52.278;20.972;2023-04-12T12:17:21;23.30;68.50
76967;DHT22;65904;52.278;20.972;2023-04-12T12:20:18;23.30;66.30
76967;DHT22;65904;52.278;20.972;2023-04-12T12:23:05;23.50;66.80
76967;DHT22;65904;52.278;20.972;2023-04-12T12:25:51;23.40;65.00
76967;DHT22;65904;52.278;20.972;2023-04-12T12:28:39;24.60;60.00
76967;DHT22;65904;52.278;20.972;2023-04-12T12:31:26;25.40;56.40
76967;DHT22;65904;52.278;20.972;2023-04-12T12:34:13;25.10;55.20
76967;DHT22;65904;52.278;20.972;2023-04-12T12:37:06;25.60;54.90
76967;DHT22;65904;52.278;20.972;2023-04-12T12:40:14;26.10;52.00
76967;DHT22;65904;52.278;20.972;2023-04-12T12:43:00;25.00;52.80
76967;DHT22;65904;52.278;20.972;2023-04-12T12:45:48;23.20;58.70
76967;DHT22;65904;52.278;20.972;2023-04-12T12:48:38;22.30;69.40
76967;DHT22;65904;52.278;20.972;2023-04-12T12:51:24;21.20;76.90
76967;DHT22;65904;52.278;20.972;2023-04-12T12:54:10;19.90;86.20
76967;DHT22;65904;52.278;20.972;2023-04-12T12:56:56;19.40;91.20
76967;DHT22;65904;52.278;20.972;2023-04-12T12:59:42;19.80;92.90
76967;DHT22;65904;52.278;20.972;2023-04-12T13:02:30;19.40;91.70
76967;DHT22;65904;52.278;20.972;2023-04-12T13:05:16;20.20;90.00
76967;DHT22;65904;52.278;20.972;2023-04-12T13:08:03;22.10;81.10
76967;DHT22;65904;52.278;20.972;2023-04-12T13:10:49;23.30;70.90
76967;DHT22;65904;52.278;20.972;2023-04-12T13:13:35;23.10;67.30
76967;DHT22;65904;52.278;20.972;2023-04-12T13:16:22;23.30;66.80
76967;DHT22;65904;52.278;20.972;2023-04-12T13:19:09;24.70;63.50
76967;DHT22;65904;52.278;20.972;2023-04-12T13:21:55;25.70;57.10
76967;DHT22;65904;52.278;20.972;2023-04-12T13:24:42;26.80;52.40
76967;DHT22;65904;52.278;20.972;2023-04-12T13:27:28;27.20;48.80
76967;DHT22;65904;52.278;20.972;2023-04-12T13:30:15;27.10;47.20
76967;DHT22;65904;52.278;20.972;2023-04-12T13:33:01;26.00;49.40
76967;DHT22;65904;52.278;20.972;2023-04-12T13:35:48;24.60;53.70
76967;DHT22;65904;52.278;20.972;2023-04-12T13:38:35;23.50;57.80
76967;DHT22;65904;52.278;20.972;2023-04-12T13:41:21;24.30;58.70
76967;DHT22;65904;52.278;20.972;2023-04-12T13:44:07;25.00;54.70
76967;DHT22;65904;52.278;20.972;2023-04-12T13:46:53;25.30;52.70
76967;DHT22;65904;52.278;20.972;2023-04-12T13:49:40;24.60;55.20
76967;DHT22;65904;52.278;20.972;2023-04-12T13:52:28;23.60;56.50
76967;DHT22;65904;52.278;20.972;2023-04-12T13:55:14;22.80;62.80
76967;DHT22;65904;52.278;20.972;2023-04-12T13:58:00;24.30;62.70
76967;DHT22;65904;52.278;20.972;2023-04-12T14:00:46;25.70;56.70
76967;DHT22;65904;52.278;20.972;2023-04-12T14:03:33;26.90;50.40
76967;DHT22;65904;52.278;20.972;2023-04-12T14:06:19;27.00;47.60
76967;DHT22;65904;52.278;20.972;2023-04-12T14:09:06;27.70;45.40
76967;DHT22;65904;52.278;20.972;2023-04-12T14:11:54;28.20;44.30
76967;DHT22;65904;52.278;20.972;2023-04-12T14:14:41;27.40;43.10
76967;DHT22;65904;52.278;20.972;2023-04-12T14:17:27;27.60;44.40
76967;DHT22;65904;52.278;20.972;2023-04-12T14:20:15;27.40;44.40
76967;DHT22;65904;52.278;20.972;2023-04-12T14:23:02;27.60;44.10
76967;DHT22;65904;52.278;20.972;2023-04-12T14:25:50;26.90;44.80
76967;DHT22;65904;52.278;20.972;2023-04-12T14:28:36;27.30;45.30
76967;DHT22;65904;52.278;20.972;2023-04-12T14:31:23;26.80;44.70
76967;DHT22;65904;52.278;20.972;2023-04-12T14:34:10;26.70;44.90
76967;DHT22;65904;52.278;20.972;2023-04-12T14:36:57;26.20;44.90
76967;DHT22;65904;52.278;20.972;2023-04-12T14:39:44;25.40;46.60
76967;DHT22;65904;52.278;20.972;2023-04-12T14:42:31;24.30;51.90
76967;DHT22;65904;52.278;20.972;2023-04-12T14:45:19;22.10;56.40
76967;DHT22;65904;52.278;20.972;2023-04-12T14:48:05;20.80;71.70
76967;DHT22;65904;52.278;20.972;2023-04-12T14:50:51;19.80;82.10
76967;DHT22;65904;52.278;20.972;2023-04-12T14:53:39;19.00;90.90
76967;DHT22;65904;52.278;20.972;2023-04-12T14:56:26;18.60;91.80
76967;DHT22;65904;52.278;20.972;2023-04-12T14:59:13;18.40;93.70
76967;DHT22;65904;52.278;20.972;2023-04-12T15:02:00;18.40;93.30
76967;DHT22;65904;52.278;20.972;2023-04-12T15:04:47;18.50;93.80
76967;DHT22;65904;52.278;20.972;2023-04-12T15:07:33;18.90;94.00
76967;DHT22;65904;52.278;20.972;2023-04-12T15:10:19;19.10;92.80
76967;DHT22;65904;52.278;20.972;2023-04-12T15:13:06;18.60;92.90
76967;DHT22;65904;52.278;20.972;2023-04-12T15:15:53;18.10;93.90
76967;DHT22;65904;52.278;20.972;2023-04-12T15:18:40;17.70;95.10
76967;DHT22;65904;52.278;20.972;2023-04-12T15:21:26;17.40;95.70
76967;DHT22;65904;52.278;20.972;2023-04-12T15:24:12;17.10;96.70
76967;DHT22;65904;52.278;20.972;2023-04-12T15:26:58;16.70;97.00
76967;DHT22;65904;52.278;20.972;2023-04-12T15:29:45;16.60;97.40
76967;DHT22;65904;52.278;20.972;2023-04-12T15:32:33;16.50;97.80
76967;DHT22;65904;52.278;20.972;2023-04-12T15:35:21;16.40;98.20
76967;DHT22;65904;52.278;20.972;2023-04-12T15:38:08;16.20;99.10
76967;DHT22;65904;52.278;20.972;2023-04-12T15:40:56;16.10;98.60
76967;DHT22;65904;52.278;20.972;2023-04-12T15:43:43;15.80;98.50
76967;DHT22;65904;52.278;20.972;2023-04-12T15:46:33;15.70;98.80
76967;DHT22;65904;52.278;20.972;2023-04-12T15:49:20;15.60;99.20
76967;DHT22;65904;52.278;20.972;2023-04-12T15:52:09;15.60;99.30
76967;DHT22;65904;52.278;20.972;2023-04-12T15:54:56;15.60;99.40
76967;DHT22;65904;52.278;20.972;2023-04-12T15:57:42;15.40;99.80
76967;DHT22;65904;52.278;20.972;2023-04-12T16:00:28;15.50;99.90
76967;DHT22;65904;52.278;20.972;2023-04-12T16:03:14;15.60;99.80
76967;DHT22;65904;52.278;20.972;2023-04-12T16:06:05;15.60;99.50
76967;DHT22;65904;52.278;20.972;2023-04-12T16:08:53;15.60;99.90
76967;DHT22;65904;52.278;20.972;2023-04-12T16:11:40;15.40;99.90
76967;DHT22;65904;52.278;20.972;2023-04-12T16:14:27;15.20;99.90
76967;DHT22;65904;52.278;20.972;2023-04-12T16:17:13;15.10;99.90
76967;DHT22;65904;52.278;20.972;2023-04-12T16:20:00;14.80;99.90
76967;DHT22;65904;52.278;20.972;2023-04-12T16:22:48;14.60;99.90
76967;DHT22;65904;52.278;20.972;2023-04-12T16:25:38;14.60;99.90
76967;DHT22;65904;52.278;20.972;2023-04-12T16:28:24;14.60;99.90
76967;DHT22;65904;52.278;20.972;2023-04-12T16:31:10;14.90;99.90
76967;DHT22;65904;52.278;20.972;2023-04-12T16:33:59;15.30;99.90
76967;DHT22;65904;52.278;20.972;2023-04-12T16:36:46;15.60;99.90
76967;DHT22;65904;52.278;20.972;2023-04-12T16:39:33;15.80;99.70
76967;DHT22;65904;52.278;20.972;2023-04-12T16:42:20;15.70;99.80
76967;DHT22;65904;52.278;20.972;2023-04-12T16:45:07;15.40;99.90
76967;DHT22;65904;52.278;20.972;2023-04-12T16:47:54;14.80;99.90
76967;DHT22;65904;52.278;20.972;2023-04-12T16:50:40;14.20;99.90
76967;DHT22;65904;52.278;20.972;2023-04-12T16:53:29;13.80;99.90
76967;DHT22;65904;52.278;20.972;2023-04-12T16:56:17;13.50;99.90
76967;DHT22;65904;52.278;20.972;2023-04-12T16:59:03;13.30;99.90
76967;DHT22;65904;52.278;20.972;2023-04-12T17:01:50;13.10;99.90
76967;DHT22;65904;52.278;20.972;2023-04-12T17:04:36;12.90;99.90
76967;DHT22;65904;52.278;20.972;2023-04-12T17:07:22;12.70;99.90
76967;DHT22;65904;52.278;20.972;2023-04-12T17:10:08;12.60;99.90
76967;DHT22;65904;52.278;20.972;2023-04-12T17:12:56;12.50;99.90
76967;DHT22;65904;52.278;20.972;2023-04-12T17:15:45;12.30;99.90
76967;DHT22;65904;52.278;20.972;2023-04-12T17:18:31;12.20;99.90
76967;DHT22;65904;52.278;20.972;2023-04-12T17:21:18;12.20;99.90
76967;DHT22;65904;52.278;20.972;2023-04-12T17:24:06;12.10;99.90
76967;DHT22;65904;52.278;20.972;2023-04-12T17:26:53;12.00;99.90
76967;DHT22;65904;52.278;20.972;2023-04-12T17:29:40;11.90;99.90
76967;DHT22;65904;52.278;20.972;2023-04-12T17:32:26;11.90;99.90
76967;DHT22;65904;52.278;20.972;2023-04-12T17:35:12;11.70;99.90
76967;DHT22;65904;52.278;20.972;2023-04-12T17:42:36;11.60;99.90
76967;DHT22;65904;52.278;20.972;2023-04-12T18:00:02;11.40;99.90